createdAt,value
2023-05-20T00:02:01.886Z,2.78
2023-05-20T00:04:28.734Z,3.35
2023-05-20T00:06:55.691Z,3.25
2023-05-20T00:09:22.566Z,3.20
2023-05-20T00:11:49.345Z,3.63
2023-05-20T00:14:16.195Z,2.75
2023-05-20T00:17:01.651Z,2.45
2023-05-20T00:19:47.175Z,3.47
2023-05-20T00:22:32.969Z,3.22
2023-05-20T00:24:59.951Z,3.47
2023-05-20T00:27:26.840Z,3.13
2023-05-20T00:29:53.774Z,2.92
2023-05-20T00:32:20.733Z,2.95
2023-05-20T00:34:57.344Z,2.80
2023-05-20T00:37:24.609Z,2.42
2023-05-20T00:39:51.810Z,2.85
2023-05-20T00:42:22.981Z,3.08
2023-05-20T00:44:50.589Z,3.05
2023-05-20T00:47:19.570Z,2.80
2023-05-20T00:49:49.642Z,3.17
2023-05-20T00:52:22.497Z,2.90
2023-05-20T00:54:51.347Z,3.42
2023-05-20T00:57:20.194Z,3.20
2023-05-20T00:59:47.447Z,2.78
2023-05-20T01:02:14.463Z,2.88
2023-05-20T01:04:46.596Z,2.78
2023-05-20T01:07:16.478Z,3.55
2023-05-20T01:09:43.648Z,2.75
2023-05-20T01:12:21.235Z,2.78
2023-05-20T01:15:11.360Z,3.42
2023-05-20T01:17:47.157Z,3.00
2023-05-20T01:20:15.168Z,2.47
2023-05-20T01:22:48.493Z,2.40
2023-05-20T01:25:15.449Z,2.53
2023-05-20T01:27:42.309Z,3.33
2023-05-20T01:30:09.883Z,2.78
2023-05-20T01:32:43.169Z,2.72
2023-05-20T01:35:10.835Z,3.15
2023-05-20T01:37:40.551Z,2.45
2023-05-20T01:40:08.900Z,3.08
2023-05-20T01:42:37.334Z,2.88
2023-05-20T01:45:05.490Z,3.25
2023-05-20T01:47:32.762Z,2.78
2023-05-20T01:50:00.537Z,2.75
2023-05-20T01:52:27.700Z,2.63
2023-05-20T01:54:54.946Z,2.65
2023-05-20T01:57:22.898Z,2.65
2023-05-20T01:59:51.402Z,2.60
2023-05-20T02:02:18.378Z,2.70
2023-05-20T02:04:49.097Z,2.58
2023-05-20T02:07:18.795Z,3.67
2023-05-20T02:09:46.738Z,2.20
2023-05-20T02:12:17.003Z,2.47
2023-05-20T02:14:45.950Z,3.42
2023-05-20T02:17:16.305Z,2.88
2023-05-20T02:19:44.718Z,2.58
2023-05-20T02:22:11.761Z,2.55
2023-05-20T02:24:38.603Z,2.80
2023-05-20T02:27:06.452Z,2.05
2023-05-20T02:29:34.099Z,2.85
2023-05-20T02:32:01.352Z,3.20
2023-05-20T02:34:30.493Z,2.80
2023-05-20T02:36:57.727Z,2.80
2023-05-20T02:39:25.055Z,1.95
2023-05-20T02:41:51.921Z,2.40
2023-05-20T02:44:37.174Z,3.17
2023-05-20T02:47:04.350Z,2.28
2023-05-20T02:49:31.477Z,2.20
2023-05-20T02:51:58.362Z,2.05
2023-05-20T02:54:25.204Z,2.75
2023-05-20T02:56:52.073Z,3.25
2023-05-20T02:59:18.915Z,2.60
2023-05-20T03:01:45.813Z,2.30
2023-05-20T03:04:12.983Z,3.10
2023-05-20T03:06:44.738Z,3.00
2023-05-20T03:09:11.926Z,2.78
2023-05-20T03:11:39.844Z,3.45
2023-05-20T03:14:06.760Z,2.75
2023-05-20T03:16:35.577Z,2.92
2023-05-20T03:19:02.686Z,3.05
2023-05-20T03:21:29.721Z,3.05
2023-05-20T03:23:56.717Z,3.05
2023-05-20T03:26:25.750Z,3.28
2023-05-20T03:28:52.693Z,2.80
2023-05-20T03:31:20.077Z,3.20
2023-05-20T03:33:47.034Z,3.60
2023-05-20T03:36:14.509Z,3.10
2023-05-20T03:38:41.361Z,3.13
2023-05-20T03:41:08.246Z,2.63
2023-05-20T03:43:35.114Z,3.45
2023-05-20T03:46:01.933Z,3.78
2023-05-20T03:48:29.175Z,3.97
2023-05-20T03:50:56.074Z,3.58
2023-05-20T03:53:23.263Z,3.53
2023-05-20T03:55:50.639Z,4.13
2023-05-20T03:58:17.635Z,4.10
2023-05-20T04:00:45.067Z,4.50
2023-05-20T04:03:12.714Z,4.57
2023-05-20T04:05:39.912Z,5.25
2023-05-20T04:08:15.019Z,5.25
2023-05-20T04:10:45.026Z,6.35
2023-05-20T04:13:31.061Z,6.82
2023-05-20T04:15:58.031Z,6.82
2023-05-20T04:18:25.117Z,6.50
2023-05-20T04:20:56.385Z,5.10
2023-05-20T04:23:24.164Z,7.18
2023-05-20T04:26:09.785Z,6.85
2023-05-20T04:28:37.844Z,5.78
2023-05-20T04:31:05.088Z,5.20
2023-05-20T04:33:38.173Z,5.63
2023-05-20T04:36:08.785Z,5.38
2023-05-20T04:38:36.145Z,5.68
2023-05-20T04:41:04.022Z,5.05
2023-05-20T04:43:31.001Z,5.50
2023-05-20T04:45:59.904Z,4.68
2023-05-20T04:48:27.383Z,5.38
2023-05-20T04:50:54.514Z,5.50
2023-05-20T04:53:40.521Z,5.75
2023-05-20T04:56:08.254Z,5.45
2023-05-20T04:58:35.537Z,4.82
2023-05-20T05:01:03.391Z,4.72
2023-05-20T05:03:30.481Z,5.25
2023-05-20T05:05:58.986Z,3.88
2023-05-20T05:08:29.496Z,4.85
2023-05-20T05:10:56.565Z,4.38
2023-05-20T05:13:23.474Z,5.35
2023-05-20T05:15:58.916Z,5.93
2023-05-20T05:18:27.723Z,5.07
2023-05-20T05:21:04.998Z,4.97
2023-05-20T05:23:33.437Z,5.05
2023-05-20T05:26:00.330Z,4.75
2023-05-20T05:28:27.920Z,4.97
2023-05-20T05:30:56.605Z,3.83
2023-05-20T05:33:23.585Z,5.93
2023-05-20T05:35:51.403Z,5.05
2023-05-20T05:38:18.557Z,5.65
2023-05-20T05:40:45.600Z,5.43
2023-05-20T05:43:12.509Z,5.85
2023-05-20T05:45:39.483Z,5.38
2023-05-20T05:48:07.356Z,5.72
2023-05-20T05:50:35.039Z,6.20
2023-05-20T05:53:01.934Z,5.05
2023-05-20T05:55:29.262Z,5.57
2023-05-20T05:57:56.317Z,5.10
2023-05-20T06:00:23.343Z,3.78
2023-05-20T06:03:09.464Z,6.00
2023-05-20T06:05:37.697Z,6.22
2023-05-20T06:08:04.995Z,6.30
2023-05-20T06:10:33.966Z,5.80
2023-05-20T06:13:00.770Z,5.75
2023-05-20T06:15:28.401Z,5.38
2023-05-20T06:20:42.104Z,4.60
2023-05-20T06:23:09.047Z,4.10
2023-05-20T06:26:08.919Z,5.45
2023-05-20T06:28:36.146Z,5.45
2023-05-20T06:31:03.106Z,5.63
2023-05-20T06:33:33.302Z,5.60
2023-05-20T06:36:05.705Z,6.20
2023-05-20T06:38:32.625Z,4.95
2023-05-20T06:40:59.557Z,5.78
2023-05-20T06:43:26.805Z,5.85
2023-05-20T06:46:16.733Z,5.32
2023-05-20T06:48:48.693Z,4.47
2023-05-20T06:51:16.986Z,4.45
2023-05-20T06:53:46.585Z,4.60
2023-05-20T06:56:14.745Z,5.05
2023-05-20T06:58:41.651Z,3.58
2023-05-20T07:01:08.528Z,4.38
2023-05-20T07:03:35.640Z,4.45
2023-05-20T07:06:02.897Z,4.85
2023-05-20T07:08:29.852Z,4.60
2023-05-20T07:10:57.200Z,4.55
2023-05-20T07:13:26.134Z,4.00
2023-05-20T07:15:53.137Z,4.05
2023-05-20T07:18:20.136Z,4.15
2023-05-20T07:20:52.760Z,3.90
2023-05-20T07:23:31.554Z,3.70
2023-05-20T07:25:58.712Z,4.30
2023-05-20T07:28:25.655Z,4.72
2023-05-20T07:30:54.150Z,3.72
2023-05-20T07:33:27.852Z,3.25
2023-05-20T07:35:54.800Z,3.75
2023-05-20T07:38:23.000Z,3.97
2023-05-20T07:40:58.855Z,3.30
2023-05-20T07:43:26.034Z,3.72
2023-05-20T07:45:53.042Z,3.85
2023-05-20T07:48:20.003Z,3.78
2023-05-20T07:50:46.935Z,4.28
2023-05-20T07:53:15.155Z,4.40
2023-05-20T07:55:41.954Z,4.53
2023-05-20T07:58:09.722Z,3.72
2023-05-20T08:00:37.026Z,3.85
2023-05-20T08:03:08.293Z,3.80
2023-05-20T08:05:54.975Z,4.18
2023-05-20T08:08:22.168Z,3.80
2023-05-20T08:10:55.725Z,4.85
2023-05-20T08:13:41.237Z,3.85
2023-05-20T08:16:27.330Z,4.38
2023-05-20T08:18:55.162Z,4.63
2023-05-20T08:21:21.991Z,3.63
2023-05-20T08:23:49.076Z,4.57
2023-05-20T08:26:15.950Z,3.70
2023-05-20T08:28:43.400Z,4.30
2023-05-20T08:31:10.909Z,3.58
2023-05-20T08:33:37.928Z,3.88
2023-05-20T08:36:05.389Z,3.70
2023-05-20T08:38:32.617Z,4.53
2023-05-20T08:41:00.813Z,4.20
2023-05-20T08:43:30.344Z,3.40
2023-05-20T08:45:58.686Z,4.28
2023-05-20T08:48:30.863Z,5.55
2023-05-20T08:50:58.260Z,4.60
2023-05-20T08:53:26.723Z,4.13
2023-05-20T08:56:00.995Z,4.93
2023-05-20T08:58:32.783Z,4.30
2023-05-20T09:01:00.168Z,4.55
2023-05-20T09:03:27.094Z,4.57
2023-05-20T09:05:54.511Z,5.60
2023-05-20T09:08:43.836Z,6.75
2023-05-20T09:11:11.606Z,4.75
2023-05-20T09:13:57.392Z,5.10
2023-05-20T09:16:24.275Z,4.32
2023-05-20T09:18:54.880Z,5.40
2023-05-20T09:21:27.108Z,5.75
2023-05-20T09:23:54.354Z,5.90
2023-05-20T09:26:22.212Z,5.25
2023-05-20T09:28:48.994Z,5.10
2023-05-20T09:31:15.947Z,4.28
2023-05-20T09:33:42.840Z,4.03
2023-05-20T09:36:10.727Z,4.72
2023-05-20T09:38:39.693Z,5.68
2023-05-20T09:41:15.375Z,5.60
2023-05-20T09:43:42.654Z,4.47
2023-05-20T09:46:10.201Z,5.25
2023-05-20T09:48:37.838Z,4.75
2023-05-20T09:51:06.960Z,5.30
2023-05-20T09:53:33.909Z,4.70
2023-05-20T09:56:00.869Z,5.00
2023-05-20T09:58:29.764Z,4.07
2023-05-20T10:00:56.685Z,4.68
2023-05-20T10:03:25.104Z,5.07
2023-05-20T10:06:08.318Z,5.30
2023-05-20T10:09:10.275Z,5.50
2023-05-20T10:11:58.613Z,5.03
2023-05-20T10:14:42.064Z,6.22
2023-05-20T10:17:29.789Z,4.43
2023-05-20T10:20:09.621Z,5.32
2023-05-20T10:22:36.641Z,5.72
2023-05-20T10:25:08.046Z,6.05
2023-05-20T10:27:45.946Z,5.07
2023-05-20T10:30:17.811Z,5.32
2023-05-20T10:32:57.646Z,5.68
2023-05-20T10:35:47.567Z,4.75
2023-05-20T10:38:14.417Z,5.18
2023-05-20T10:40:41.429Z,5.70
2023-05-20T10:43:26.714Z,5.28
2023-05-20T10:45:55.600Z,4.18
2023-05-20T10:48:30.493Z,4.97
2023-05-20T10:50:59.912Z,5.45
2023-05-20T10:53:34.044Z,3.97
2023-05-20T10:56:01.749Z,4.45
2023-05-20T10:58:36.643Z,4.47
2023-05-20T11:01:03.703Z,4.40
2023-05-20T11:03:31.166Z,3.85
2023-05-20T11:05:58.054Z,4.50
2023-05-20T11:08:29.884Z,4.63
2023-05-20T11:10:57.825Z,4.78
2023-05-20T11:13:26.774Z,4.38
2023-05-20T11:15:54.286Z,4.95
2023-05-20T11:18:52.072Z,3.65
2023-05-20T11:21:44.256Z,3.22
2023-05-20T11:24:11.315Z,4.57
2023-05-20T11:26:38.986Z,4.88
2023-05-20T11:29:06.298Z,4.47
2023-05-20T11:31:33.344Z,5.05
2023-05-20T11:34:01.669Z,4.15
2023-05-20T11:36:29.021Z,4.63
2023-05-20T11:38:57.897Z,6.22
2023-05-20T11:41:25.728Z,4.38
2023-05-20T11:43:58.145Z,4.00
2023-05-20T11:46:25.548Z,4.50
2023-05-20T11:48:56.907Z,4.18
2023-05-20T11:51:30.534Z,5.10
2023-05-20T11:54:02.496Z,4.82
2023-05-20T11:56:31.244Z,4.20
2023-05-20T11:58:59.997Z,5.35
2023-05-20T12:01:45.796Z,4.25
2023-05-20T12:04:16.498Z,6.13
2023-05-20T12:06:44.225Z,4.28
2023-05-20T12:09:11.414Z,5.50
2023-05-20T12:11:41.516Z,5.07
2023-05-20T12:14:09.152Z,4.78
2023-05-20T12:16:54.783Z,5.85
2023-05-20T12:19:21.778Z,4.90
2023-05-20T12:21:48.748Z,6.28
2023-05-20T12:24:15.884Z,6.32
2023-05-20T12:26:42.717Z,5.53
2023-05-20T12:32:31.939Z,5.82
2023-05-20T12:35:36.459Z,5.15
2023-05-20T12:38:03.464Z,5.38
2023-05-20T12:40:30.307Z,5.63
2023-05-20T12:42:57.264Z,4.65
2023-05-20T12:45:24.126Z,6.35
2023-05-20T12:47:51.504Z,5.43
2023-05-20T12:50:18.441Z,5.88
2023-05-20T12:52:45.631Z,5.68
2023-05-20T12:55:15.757Z,5.30
2023-05-20T12:57:46.677Z,5.18
2023-05-20T13:00:14.070Z,5.25
2023-05-20T13:02:42.395Z,5.32
2023-05-20T13:05:10.159Z,6.70
2023-05-20T13:07:37.269Z,4.85
2023-05-20T13:10:04.502Z,7.05
2023-05-20T13:12:31.529Z,6.10
2023-05-20T13:14:58.366Z,5.47
2023-05-20T13:17:25.216Z,5.28
2023-05-20T13:20:12.009Z,5.95
2023-05-20T13:22:38.859Z,5.68
2023-05-20T13:25:06.701Z,6.57
2023-05-20T13:27:33.624Z,5.90
2023-05-20T13:30:01.885Z,7.22
2023-05-20T13:32:28.865Z,5.32
2023-05-20T13:34:57.099Z,6.53
2023-05-20T13:37:42.731Z,7.85
2023-05-20T13:40:10.064Z,6.45
2023-05-20T13:42:37.244Z,5.45
2023-05-20T13:45:04.724Z,6.15
2023-05-20T13:47:31.751Z,6.70
2023-05-20T13:50:00.071Z,6.32
2023-05-20T13:52:28.143Z,6.85
2023-05-20T13:55:32.957Z,7.10
2023-05-20T13:57:59.958Z,5.53
2023-05-20T14:00:27.071Z,5.78
2023-05-20T14:02:54.583Z,7.93
2023-05-20T14:08:05.901Z,6.30
2023-05-20T14:10:32.943Z,6.22
2023-05-20T14:13:02.206Z,5.30
2023-05-20T14:15:31.946Z,6.18
2023-05-20T14:17:59.225Z,5.38
2023-05-20T14:20:26.187Z,6.60
2023-05-20T14:22:53.519Z,5.15
2023-05-20T14:25:20.398Z,5.97
2023-05-20T14:27:47.297Z,6.43
2023-05-20T14:30:14.140Z,7.22
2023-05-20T14:32:41.037Z,6.00
2023-05-20T14:35:08.234Z,5.68
2023-05-20T14:37:35.114Z,6.78
2023-05-20T14:40:02.358Z,6.60
2023-05-20T14:42:29.232Z,6.97
2023-05-20T14:44:56.090Z,7.13
2023-05-20T14:47:22.969Z,7.25
2023-05-20T14:49:50.312Z,7.20
2023-05-20T14:52:36.109Z,7.15
2023-05-20T14:55:03.033Z,6.78
2023-05-20T14:57:29.878Z,12.77
2023-05-20T14:59:56.763Z,6.25
2023-05-20T15:02:23.710Z,6.80
2023-05-20T15:04:51.052Z,6.90
2023-05-20T15:07:17.880Z,6.18
2023-05-20T15:09:44.789Z,6.88
2023-05-20T15:12:11.685Z,5.68
2023-05-20T15:14:38.534Z,6.32
2023-05-20T15:17:05.397Z,6.95
2023-05-20T15:19:32.892Z,6.60
2023-05-20T15:22:00.142Z,6.93
2023-05-20T15:24:26.985Z,6.30
2023-05-20T15:26:55.107Z,6.38
2023-05-20T15:29:22.233Z,7.40
2023-05-20T15:32:07.520Z,6.45
2023-05-20T15:34:34.409Z,6.30
2023-05-20T15:37:01.258Z,6.85
2023-05-20T15:39:28.537Z,6.53
2023-05-20T15:41:56.130Z,6.88
2023-05-20T15:44:23.262Z,7.03
2023-05-20T15:46:50.242Z,5.95
2023-05-20T15:49:17.056Z,7.63
2023-05-20T15:51:55.583Z,6.20
2023-05-20T15:54:29.037Z,5.88
2023-05-20T15:56:55.964Z,6.32
2023-05-20T15:59:22.889Z,6.60
2023-05-20T16:01:49.934Z,6.63
2023-05-20T16:04:17.044Z,6.13
2023-05-20T16:06:43.884Z,5.60
2023-05-20T16:09:10.742Z,5.47
2023-05-20T16:11:37.596Z,6.00
2023-05-20T16:14:04.548Z,6.18
2023-05-20T16:16:32.652Z,5.13
2023-05-20T16:19:00.629Z,7.25
2023-05-20T16:21:27.440Z,6.35
2023-05-20T16:24:13.502Z,7.40
2023-05-20T16:26:40.602Z,6.47
2023-05-20T16:29:07.388Z,5.85
2023-05-20T16:31:34.295Z,7.05
2023-05-20T16:34:02.294Z,7.50
2023-05-20T16:36:47.694Z,5.90
2023-05-20T16:39:15.521Z,6.68
2023-05-20T16:41:42.856Z,7.45
2023-05-20T16:44:10.427Z,7.60
2023-05-20T16:46:37.219Z,8.30
2023-05-20T16:49:04.111Z,8.10
2023-05-20T16:51:49.552Z,7.50
2023-05-20T16:54:16.818Z,6.80
2023-05-20T16:56:43.629Z,7.60
2023-05-20T16:59:10.439Z,7.78
2023-05-20T17:01:37.300Z,9.57
2023-05-20T17:04:05.071Z,8.82
2023-05-20T17:06:34.236Z,7.40
2023-05-20T17:09:03.980Z,7.53
2023-05-20T17:11:31.093Z,8.60
2023-05-20T17:13:57.986Z,8.77
2023-05-20T17:16:25.045Z,8.73
2023-05-20T17:18:53.598Z,9.13
2023-05-20T17:21:20.737Z,10.15
2023-05-20T17:26:32.100Z,8.65
2023-05-20T17:28:58.995Z,10.07
2023-05-20T17:31:44.587Z,9.35
2023-05-20T17:34:11.503Z,9.85
2023-05-20T17:36:38.437Z,10.65
2023-05-20T17:39:05.285Z,9.43
2023-05-20T17:41:32.151Z,10.88
2023-05-20T17:43:59.066Z,9.68
2023-05-20T17:46:44.469Z,9.82
2023-05-20T17:49:11.354Z,10.07
2023-05-20T17:51:38.170Z,9.02
2023-05-20T17:54:05.133Z,8.90
2023-05-20T17:56:32.175Z,8.82
2023-05-20T17:58:59.034Z,8.38
2023-05-20T18:01:26.981Z,7.57
2023-05-20T18:03:54.234Z,9.18
2023-05-20T18:06:21.267Z,7.15
2023-05-20T18:11:33.896Z,7.80
2023-05-20T18:14:01.701Z,8.82
2023-05-20T18:16:30.021Z,9.55
2023-05-20T18:18:57.910Z,8.43
2023-05-20T18:21:25.605Z,8.43
2023-05-20T18:23:52.563Z,8.65
2023-05-20T18:26:19.403Z,9.40
2023-05-20T18:28:46.373Z,8.98
2023-05-20T18:31:13.314Z,9.07
2023-05-20T18:33:41.027Z,9.27
2023-05-20T18:36:08.175Z,8.90
2023-05-20T18:38:35.000Z,9.45
2023-05-20T18:41:01.789Z,8.70
2023-05-20T18:43:28.649Z,7.97
2023-05-20T18:45:55.954Z,9.02
2023-05-20T18:51:07.459Z,8.40
2023-05-20T18:53:53.178Z,8.02
2023-05-20T18:56:20.078Z,8.48
2023-05-20T18:58:47.001Z,7.95
2023-05-20T19:01:13.828Z,8.25
2023-05-20T19:03:44.266Z,9.38
2023-05-20T19:06:13.634Z,8.10
2023-05-20T19:08:41.060Z,8.45
2023-05-20T19:11:07.965Z,8.52
2023-05-20T19:13:34.882Z,6.03
2023-05-20T19:16:02.340Z,7.70
2023-05-20T19:18:29.207Z,8.80
2023-05-20T19:20:56.414Z,8.82
2023-05-20T19:23:23.225Z,8.73
2023-05-20T19:25:50.079Z,8.38
2023-05-20T19:28:16.917Z,8.70
2023-05-20T19:30:43.791Z,8.45
2023-05-20T19:33:10.952Z,7.10
2023-05-20T19:35:37.941Z,7.72
2023-05-20T19:38:05.914Z,7.78
2023-05-20T19:40:32.874Z,6.63
2023-05-20T19:42:59.657Z,7.63
2023-05-20T19:45:44.911Z,7.53
2023-05-20T19:48:11.843Z,6.07
2023-05-20T19:50:38.691Z,5.57
2023-05-20T19:53:07.570Z,6.28
2023-05-20T19:55:53.363Z,6.25
2023-05-20T19:58:20.221Z,6.90
2023-05-20T20:00:47.029Z,5.88
2023-05-20T20:03:13.944Z,6.65
2023-05-20T20:05:40.809Z,6.28
2023-05-20T20:08:07.684Z,6.30
2023-05-20T20:10:35.753Z,6.38
2023-05-20T20:13:02.591Z,6.45
2023-05-20T20:15:48.213Z,6.53
2023-05-20T20:18:33.635Z,5.82
2023-05-20T20:21:00.613Z,7.05
2023-05-20T20:23:27.545Z,7.13
2023-05-20T20:25:54.416Z,7.22
2023-05-20T20:28:21.294Z,7.10
2023-05-20T20:30:48.149Z,5.90
2023-05-20T20:33:15.081Z,7.32
2023-05-20T20:35:42.001Z,7.78
2023-05-20T20:38:09.927Z,7.25
2023-05-20T20:40:42.617Z,6.88
2023-05-20T20:43:11.138Z,6.80
2023-05-20T20:45:38.094Z,7.82
2023-05-20T20:48:07.795Z,7.90
2023-05-20T20:50:36.454Z,7.68
2023-05-20T20:53:03.492Z,7.13
2023-05-20T20:55:34.486Z,6.88
2023-05-20T20:58:04.870Z,6.60
2023-05-20T21:00:31.732Z,7.35
2023-05-20T21:02:58.620Z,7.30
2023-05-20T21:05:26.721Z,7.38
2023-05-20T21:07:58.354Z,8.07
2023-05-20T21:10:29.791Z,7.80
2023-05-20T21:12:58.032Z,7.68
2023-05-20T21:15:26.406Z,7.85
2023-05-20T21:17:53.363Z,9.05
2023-05-20T21:20:21.528Z,6.65
2023-05-20T21:22:48.749Z,7.13
2023-05-20T21:25:15.748Z,6.90
2023-05-20T21:27:42.737Z,7.20
2023-05-20T21:30:11.020Z,7.90
2023-05-20T21:32:38.485Z,7.47
2023-05-20T21:35:05.788Z,6.82
2023-05-20T21:37:51.921Z,7.53
2023-05-20T21:40:18.850Z,6.93
2023-05-20T21:42:46.009Z,7.05
2023-05-20T21:45:12.909Z,7.40
2023-05-20T21:47:39.742Z,7.05
2023-05-20T21:50:07.922Z,5.72
2023-05-20T21:52:34.780Z,8.68
2023-05-20T21:55:23.701Z,5.78
2023-05-20T21:57:51.260Z,6.90
2023-05-20T22:00:19.200Z,7.70
2023-05-20T22:02:46.331Z,7.25
2023-05-20T22:05:31.645Z,6.95
2023-05-20T22:08:00.559Z,6.90
2023-05-20T22:10:27.828Z,7.47
2023-05-20T22:13:13.756Z,7.32
2023-05-20T22:15:40.870Z,7.93
2023-05-20T22:18:08.038Z,7.55
2023-05-20T22:20:35.180Z,8.00
2023-05-20T22:23:02.010Z,7.47
2023-05-20T22:25:28.834Z,8.10
2023-05-20T22:27:55.854Z,8.50
2023-05-20T22:30:22.857Z,8.32
2023-05-20T22:32:49.821Z,8.00
2023-05-20T22:35:35.771Z,7.43
2023-05-20T22:38:02.835Z,7.82
2023-05-20T22:40:29.694Z,8.57
2023-05-20T22:42:56.760Z,9.13
2023-05-20T22:45:23.536Z,8.20
2023-05-20T22:47:51.151Z,6.57
2023-05-20T22:50:18.321Z,8.18
2023-05-20T22:52:45.145Z,8.48
2023-05-20T22:55:12.180Z,8.55
2023-05-20T22:57:39.225Z,9.00
2023-05-20T23:00:08.108Z,9.45
2023-05-20T23:02:35.217Z,8.05
2023-05-20T23:05:04.041Z,8.98
2023-05-20T23:07:31.406Z,8.63
2023-05-20T23:09:58.273Z,7.80
2023-05-20T23:15:09.975Z,7.60
2023-05-20T23:17:37.319Z,8.65
2023-05-20T23:20:11.278Z,8.30
2023-05-20T23:22:38.643Z,8.27
2023-05-20T23:25:05.990Z,8.57
2023-05-20T23:27:33.170Z,7.68
2023-05-20T23:30:00.265Z,6.88
2023-05-20T23:32:27.158Z,7.50
2023-05-20T23:37:40.960Z,7.65
2023-05-20T23:40:11.752Z,7.13
2023-05-20T23:42:39.247Z,7.47
2023-05-20T23:45:06.630Z,8.07
2023-05-20T23:47:34.335Z,7.78
2023-05-20T23:50:01.437Z,7.18
2023-05-20T23:52:28.376Z,6.82
2023-05-20T23:54:56.443Z,7.10
2023-05-20T23:57:23.274Z,8.57
2023-05-20T23:59:50.851Z,6.97
